Time;durP1;ratioP1;P1;durP2;ratioP2;P2;SDS_P1;SDS_P2;PMS_P1;PMS_P2;Temp;Humidity;BMP_temperature;BMP_pressure;BME280_temperature;BME280_humidity;BME280_pressure;Samples;Min_cycle;Max_cycle;Signal;HPM_P1;HPM_P2
2023/01/04 00:01:34;;;;;;;10.35;2.85;;;;;;;;;;5044242;28;20553;-75
2023/01/04 00:04:00;;;;;;;10.32;3.10;;;;;;;;;;5055708;28;20090;-75
2023/01/04 00:06:26;;;;;;;9.05;3.15;;;;;;;;;;5040042;28;21456;-74
2023/01/04 00:08:53;;;;;;;10.20;3.47;;;;;;;;;;5054783;28;20772;-75
2023/01/04 00:11:20;;;;;;;13.05;3.30;;;;;;;;;;5056984;28;20048;-75
2023/01/04 00:13:47;;;;;;;9.25;3.17;;;;;;;;;;5073264;27;20047;-75
2023/01/04 00:16:14;;;;;;;10.45;3.33;;;;;;;;;;5067231;28;20032;-75
2023/01/04 00:18:41;;;;;;;4.93;2.58;;;;;;;;;;5077265;28;20066;-75
2023/01/04 00:21:33;;;;;;;7.97;3.72;;;;;;;;;;5073360;28;20043;-74
2023/01/04 00:24:00;;;;;;;9.40;3.35;;;;;;;;;;5072429;28;20068;-75
2023/01/04 00:26:28;;;;;;;9.77;3.42;;;;;;;;;;5071598;28;20143;-75
2023/01/04 00:28:55;;;;;;;14.05;3.97;;;;;;;;;;5057986;28;20039;-75
2023/01/04 00:31:21;;;;;;;9.18;2.90;;;;;;;;;;5038839;28;20481;-74
2023/01/04 00:33:47;;;;;;;9.25;2.67;;;;;;;;;;5056300;28;20055;-75
2023/01/04 00:36:14;;;;;;;6.47;3.28;;;;;;;;;;5058182;28;20040;-74
2023/01/04 00:38:40;;;;;;;9.90;2.88;;;;;;;;;;5071924;28;20037;-74
2023/01/04 00:41:07;;;;;;;5.47;3.08;;;;;;;;;;5054091;28;20079;-74
2023/01/04 00:43:33;;;;;;;5.18;2.42;;;;;;;;;;5056158;28;20330;-75
2023/01/04 00:46:02;;;;;;;7.82;3.05;;;;;;;;;;5025190;28;20233;-75
2023/01/04 00:48:29;;;;;;;8.95;2.92;;;;;;;;;;5057827;28;20045;-75
2023/01/04 00:50:55;;;;;;;8.95;3.72;;;;;;;;;;5046122;28;20036;-75
2023/01/04 00:53:21;;;;;;;8.95;3.22;;;;;;;;;;5056375;28;20122;-75
2023/01/04 00:55:47;;;;;;;9.65;4.00;;;;;;;;;;5061368;28;20159;-75
2023/01/04 00:58:15;;;;;;;10.07;3.58;;;;;;;;;;5056710;28;20577;-76
2023/01/04 01:00:41;;;;;;;9.23;3.28;;;;;;;;;;5057317;28;20500;-76
2023/01/04 01:03:07;;;;;;;6.88;3.70;;;;;;;;;;5045093;28;20846;-76
2023/01/04 01:05:34;;;;;;;6.30;3.42;;;;;;;;;;5055455;28;20050;-76
2023/01/04 01:08:23;;;;;;;10.48;4.10;;;;;;;;;;5040480;28;20055;-76
2023/01/04 01:10:46;;;;;;;11.90;3.72;;;;;;;;;;5056821;28;20044;-76
2023/01/04 01:13:12;;;;;;;10.15;3.72;;;;;;;;;;5053352;28;20040;-76
2023/01/04 01:15:39;;;;;;;7.60;3.88;;;;;;;;;;5019690;28;22209;-76
2023/01/04 01:18:05;;;;;;;6.38;3.70;;;;;;;;;;5055407;28;20052;-76
2023/01/04 01:20:31;;;;;;;11.00;3.83;;;;;;;;;;5055419;28;20100;-77
2023/01/04 01:22:57;;;;;;;8.93;3.58;;;;;;;;;;5055034;28;20051;-76
2023/01/04 01:25:23;;;;;;;7.15;2.83;;;;;;;;;;5039345;28;20726;-76
2023/01/04 01:27:49;;;;;;;10.18;3.13;;;;;;;;;;5037907;28;20045;-76
2023/01/04 01:30:15;;;;;;;6.65;3.00;;;;;;;;;;5054943;28;20127;-76
2023/01/04 01:32:41;;;;;;;9.90;3.85;;;;;;;;;;5052380;28;20047;-76
2023/01/04 01:35:07;;;;;;;7.97;2.90;;;;;;;;;;5042235;28;20036;-76
2023/01/04 01:37:33;;;;;;;8.95;3.90;;;;;;;;;;5056315;28;20174;-76
2023/01/04 01:39:59;;;;;;;4.82;2.47;;;;;;;;;;5055327;28;20528;-76
2023/01/04 01:42:25;;;;;;;7.68;3.42;;;;;;;;;;5056081;28;20044;-76
2023/01/04 01:45:00;;;;;;;9.18;2.47;;;;;;;;;;5039939;28;20365;-75
2023/01/04 01:47:31;;;;;;;10.07;3.45;;;;;;;;;;5056941;28;20633;-75
2023/01/04 01:49:57;;;;;;;11.20;3.42;;;;;;;;;;5055243;28;20038;-75
2023/01/04 01:52:27;;;;;;;3.75;2.67;;;;;;;;;;5054180;28;20069;-75
2023/01/04 01:54:56;;;;;;;8.48;3.15;;;;;;;;;;5055005;28;20045;-76
2023/01/04 01:57:24;;;;;;;11.13;3.88;;;;;;;;;;5055278;28;20292;-76
2023/01/04 01:59:52;;;;;;;5.80;4.20;;;;;;;;;;5073727;28;20040;-76
2023/01/04 02:02:19;;;;;;;7.65;3.58;;;;;;;;;;5055043;28;20135;-77
2023/01/04 02:04:47;;;;;;;5.55;3.33;;;;;;;;;;5055748;28;22875;-76
2023/01/04 02:07:14;;;;;;;3.25;2.88;;;;;;;;;;5079439;28;20040;-75
2023/01/04 02:09:40;;;;;;;9.85;3.72;;;;;;;;;;5082519;28;20222;-76
2023/01/04 02:12:10;;;;;;;5.18;3.83;;;;;;;;;;5057418;28;20990;-77
2023/01/04 02:14:36;;;;;;;6.25;3.05;;;;;;;;;;5074820;28;20201;-77
2023/01/04 02:17:21;;;;;;;5.43;3.40;;;;;;;;;;5066004;28;20056;-76
2023/01/04 02:20:09;;;;;;;7.45;3.80;;;;;;;;;;5055443;28;20116;-76
2023/01/04 02:22:41;;;;;;;6.72;3.25;;;;;;;;;;5056299;28;20438;-76
2023/01/04 02:25:16;;;;;;;4.80;3.58;;;;;;;;;;5059834;28;20506;-76
2023/01/04 02:27:57;;;;;;;6.57;3.90;;;;;;;;;;5059864;28;20049;-76
2023/01/04 02:30:23;;;;;;;5.03;3.85;;;;;;;;;;5039757;28;20059;-76
2023/01/04 02:32:53;;;;;;;9.35;4.05;;;;;;;;;;5053652;28;20438;-77
2023/01/04 02:35:24;;;;;;;7.55;3.55;;;;;;;;;;5055883;28;20036;-75
2023/01/04 02:37:55;;;;;;;8.30;3.58;;;;;;;;;;5062159;28;20414;-76
2023/01/04 02:40:28;;;;;;;7.13;3.38;;;;;;;;;;5054711;28;20135;-75
2023/01/04 02:45:47;;;;;;;4.05;3.25;;;;;;;;;;5051491;28;20074;-75
2023/01/04 02:50:59;;;;;;;3.50;2.55;;;;;;;;;;5051732;28;20662;-75
2023/01/04 02:53:31;;;;;;;2.78;2.08;;;;;;;;;;5052767;28;20054;-75
2023/01/04 02:56:12;;;;;;;7.10;2.22;;;;;;;;;;5033926;28;20075;-75
2023/01/04 02:58:53;;;;;;;4.43;2.63;;;;;;;;;;5054624;28;20514;-75
2023/01/04 03:07:00;;;;;;;;;;;;;;;;;;5053588;28;20044;-77
2023/01/04 03:09:29;;;;;;;2.50;1.98;;;;;;;;;;5051415;28;19936;-78
2023/01/04 03:15:00;;;;;;;3.90;2.28;;;;;;;;;;5053721;28;20064;-77
2023/01/04 03:17:27;;;;;;;4.85;2.63;;;;;;;;;;5053996;28;20045;-77
2023/01/04 03:19:55;;;;;;;4.07;2.65;;;;;;;;;;5070917;28;20055;-76
2023/01/04 03:36:55;;;;;;;2.92;1.90;;;;;;;;;;5053370;28;20419;-76
2023/01/04 03:50:49;;;;;;;3.15;1.98;;;;;;;;;;5052479;28;20135;-76
2023/01/04 03:53:15;;;;;;;2.50;1.90;;;;;;;;;;5056239;28;20147;-77
2023/01/04 03:55:42;;;;;;;1.77;1.52;;;;;;;;;;5070657;28;20549;-77
2023/01/04 03:58:08;;;;;;;2.35;1.58;;;;;;;;;;5088884;28;20063;-78
2023/01/04 04:00:34;;;;;;;4.07;1.95;;;;;;;;;;5060209;28;20052;-77
2023/01/04 04:03:06;;;;;;;2.25;2.05;;;;;;;;;;5078147;28;20151;-76
2023/01/04 04:08:30;;;;;;;2.45;1.45;;;;;;;;;;5058204;28;20058;-78
2023/01/04 04:11:28;;;;;;;7.93;1.55;;;;;;;;;;5062889;28;20041;-77
2023/01/04 04:13:45;;;;;;;1.85;1.63;;;;;;;;;;5061779;28;20068;-79
2023/01/04 04:16:11;;;;;;;1.70;1.58;;;;;;;;;;5057379;28;20468;-79
2023/01/04 04:18:37;;;;;;;2.03;1.85;;;;;;;;;;5053372;28;20045;-79
2023/01/04 04:21:03;;;;;;;1.45;1.20;;;;;;;;;;5053285;28;20048;-79
2023/01/04 04:23:29;;;;;;;1.20;1.15;;;;;;;;;;5040783;28;20361;-80
2023/01/04 04:25:55;;;;;;;2.45;2.08;;;;;;;;;;5051637;28;20048;-80
2023/01/04 04:28:21;;;;;;;2.40;2.20;;;;;;;;;;5073288;28;20044;-81
2023/01/04 04:30:50;;;;;;;2.63;1.77;;;;;;;;;;5054938;28;20051;-81
2023/01/04 04:33:16;;;;;;;1.55;1.45;;;;;;;;;;5054388;28;20059;-82
2023/01/04 04:35:43;;;;;;;3.78;1.85;;;;;;;;;;5028486;28;20182;-82
2023/01/04 04:38:09;;;;;;;1.98;1.65;;;;;;;;;;5058050;28;20725;-82
2023/01/04 04:43:22;;;;;;;1.20;1.10;;;;;;;;;;5054860;28;20063;-81
2023/01/04 04:45:48;;;;;;;2.17;1.98;;;;;;;;;;5057109;28;20052;-79
2023/01/04 04:48:14;;;;;;;2.50;2.30;;;;;;;;;;5055623;28;20779;-81
2023/01/04 04:50:40;;;;;;;2.72;2.53;;;;;;;;;;5056851;28;20664;-80
2023/01/04 04:53:06;;;;;;;2.33;2.13;;;;;;;;;;5055694;28;20064;-81
2023/01/04 04:55:32;;;;;;;2.45;2.25;;;;;;;;;;5056499;28;20052;-81
2023/01/04 04:57:58;;;;;;;3.47;3.17;;;;;;;;;;5039961;28;20151;-80
2023/01/04 05:00:24;;;;;;;3.05;2.75;;;;;;;;;;5043231;28;20480;-81
2023/01/04 05:02:50;;;;;;;2.42;2.20;;;;;;;;;;5039488;28;22903;-82
2023/01/04 05:05:16;;;;;;;2.75;2.42;;;;;;;;;;5036390;28;20046;-81
2023/01/04 05:07:42;;;;;;;3.63;3.00;;;;;;;;;;5052617;28;20619;-79
2023/01/04 05:10:09;;;;;;;1.83;1.73;;;;;;;;;;5055569;28;21640;-80
2023/01/04 05:15:19;;;;;;;3.85;3.42;;;;;;;;;;5039587;28;20078;-80
2023/01/04 05:17:45;;;;;;;3.22;2.88;;;;;;;;;;5056287;28;20059;-81
2023/01/04 05:20:11;;;;;;;3.20;2.83;;;;;;;;;;5038712;28;20044;-79
2023/01/04 05:22:37;;;;;;;3.35;3.05;;;;;;;;;;5053141;28;20040;-79
2023/01/04 05:25:04;;;;;;;3.63;2.63;;;;;;;;;;5057805;28;20052;-79
2023/01/04 05:27:30;;;;;;;3.15;2.83;;;;;;;;;;5055554;28;20129;-80
2023/01/04 05:32:41;;;;;;;6.07;4.20;;;;;;;;;;5057746;28;20160;-79
2023/01/04 05:35:07;;;;;;;4.78;3.33;;;;;;;;;;5056962;28;20440;-80
2023/01/04 05:37:33;;;;;;;4.28;3.85;;;;;;;;;;5077703;28;20040;-79
2023/01/04 05:39:59;;;;;;;2.88;2.58;;;;;;;;;;5080853;28;20535;-79
2023/01/04 05:42:26;;;;;;;3.38;2.38;;;;;;;;;;5069787;28;21761;-79
2023/01/04 05:44:52;;;;;;;3.63;3.33;;;;;;;;;;5069520;28;20142;-81
2023/01/04 05:47:18;;;;;;;3.80;3.40;;;;;;;;;;5061113;28;21282;-82
2023/01/04 05:49:44;;;;;;;5.15;3.38;;;;;;;;;;5067434;28;20425;-82
2023/01/04 05:52:11;;;;;;;3.70;3.25;;;;;;;;;;5062303;28;21020;-82
2023/01/04 05:54:37;;;;;;;6.32;3.47;;;;;;;;;;5049846;28;20653;-82
2023/01/04 05:57:03;;;;;;;2.70;2.50;;;;;;;;;;5044414;28;20079;-82
2023/01/04 05:59:29;;;;;;;4.07;3.28;;;;;;;;;;5032681;28;20049;-83
2023/01/04 06:01:55;;;;;;;3.08;2.78;;;;;;;;;;5058317;28;20036;-82
2023/01/04 06:04:21;;;;;;;3.42;2.17;;;;;;;;;;5044342;28;20054;-83
2023/01/04 06:06:47;;;;;;;1.98;1.88;;;;;;;;;;5044602;28;20431;-83
2023/01/04 06:09:14;;;;;;;2.50;2.30;;;;;;;;;;5040209;28;20149;-84
2023/01/04 06:11:40;;;;;;;2.45;2.25;;;;;;;;;;5039130;28;21591;-82
2023/01/04 06:14:06;;;;;;;2.60;2.40;;;;;;;;;;5040074;28;20830;-81
2023/01/04 06:16:32;;;;;;;3.30;2.13;;;;;;;;;;5043553;28;20503;-82
2023/01/04 06:18:58;;;;;;;3.03;1.48;;;;;;;;;;5057188;28;20298;-81
2023/01/04 06:21:24;;;;;;;6.70;3.00;;;;;;;;;;5055486;28;20776;-80
2023/01/04 06:23:51;;;;;;;2.63;1.90;;;;;;;;;;5054746;28;21994;-80
2023/01/04 06:26:17;;;;;;;3.25;1.90;;;;;;;;;;5057896;28;20063;-79
2023/01/04 06:28:43;;;;;;;1.48;1.38;;;;;;;;;;5055713;28;20477;-79
2023/01/04 06:31:10;;;;;;;1.58;1.33;;;;;;;;;;5056030;28;20064;-79
2023/01/04 06:33:36;;;;;;;2.47;1.80;;;;;;;;;;5063783;28;20115;-79
2023/01/04 06:36:02;;;;;;;2.58;2.03;;;;;;;;;;5059978;28;20094;-78
2023/01/04 06:38:30;;;;;;;3.00;2.15;;;;;;;;;;5058420;28;20040;-78
2023/01/04 06:40:56;;;;;;;2.45;1.98;;;;;;;;;;5052690;28;20047;-78
2023/01/04 06:43:22;;;;;;;5.63;2.40;;;;;;;;;;5038329;28;20051;-77
2023/01/04 06:45:48;;;;;;;3.92;1.73;;;;;;;;;;5054235;28;20234;-78
2023/01/04 06:48:15;;;;;;;1.50;1.40;;;;;;;;;;5042637;28;20059;-78
2023/01/04 06:50:41;;;;;;;3.33;2.15;;;;;;;;;;5057704;28;20048;-78
2023/01/04 06:53:07;;;;;;;1.60;1.50;;;;;;;;;;5055437;28;20037;-77
2023/01/04 06:55:33;;;;;;;2.38;1.90;;;;;;;;;;5040522;28;20055;-77
2023/01/04 06:57:59;;;;;;;3.80;2.40;;;;;;;;;;5058587;28;20117;-77
2023/01/04 07:00:26;;;;;;;4.75;2.42;;;;;;;;;;5057227;28;20036;-77
2023/01/04 07:02:52;;;;;;;3.10;1.73;;;;;;;;;;5059127;28;20043;-78
2023/01/04 07:05:18;;;;;;;4.70;2.35;;;;;;;;;;5056994;28;20040;-78
2023/01/04 07:07:44;;;;;;;4.32;2.50;;;;;;;;;;5038244;28;20050;-76
2023/01/04 07:10:10;;;;;;;2.47;1.50;;;;;;;;;;5050871;28;20071;-77
2023/01/04 07:12:37;;;;;;;2.50;1.73;;;;;;;;;;5026240;28;20040;-77
2023/01/04 07:15:04;;;;;;;1.85;1.30;;;;;;;;;;5069948;28;20073;-78
2023/01/04 07:17:30;;;;;;;1.75;1.60;;;;;;;;;;5086426;28;20075;-77
2023/01/04 07:19:56;;;;;;;2.00;1.80;;;;;;;;;;5079170;28;20056;-77
2023/01/04 07:22:22;;;;;;;4.85;2.47;;;;;;;;;;5043284;28;20051;-77
2023/01/04 07:24:48;;;;;;;2.25;2.05;;;;;;;;;;5082478;28;20052;-77
2023/01/04 07:27:14;;;;;;;5.22;2.42;;;;;;;;;;5068110;28;20051;-78
2023/01/04 07:29:43;;;;;;;2.90;2.10;;;;;;;;;;5039747;28;20528;-77
2023/01/04 07:32:09;;;;;;;1.80;1.70;;;;;;;;;;5052324;28;20595;-78
2023/01/04 07:34:36;;;;;;;1.92;1.83;;;;;;;;;;5068134;28;20046;-78
2023/01/04 07:37:10;;;;;;;2.55;1.80;;;;;;;;;;5054324;28;20429;-78
2023/01/04 07:39:36;;;;;;;3.88;2.38;;;;;;;;;;5036494;28;20048;-77
2023/01/04 07:42:02;;;;;;;3.13;2.30;;;;;;;;;;5055222;28;20040;-77
2023/01/04 07:44:28;;;;;;;5.20;2.80;;;;;;;;;;5057314;28;20445;-78
2023/01/04 07:46:54;;;;;;;4.22;2.90;;;;;;;;;;5054314;28;20040;-78
2023/01/04 07:49:20;;;;;;;6.28;3.58;;;;;;;;;;5035600;28;20511;-77
2023/01/04 07:51:47;;;;;;;7.38;3.40;;;;;;;;;;5051008;28;20488;-78
2023/01/04 07:54:14;;;;;;;9.70;4.00;;;;;;;;;;5025983;28;20045;-78
2023/01/04 07:56:40;;;;;;;3.63;2.40;;;;;;;;;;5051091;28;20070;-79
2023/01/04 07:59:07;;;;;;;4.03;2.13;;;;;;;;;;5031865;28;20684;-78
2023/01/04 08:01:34;;;;;;;4.38;2.47;;;;;;;;;;5039093;28;20385;-79
2023/01/04 08:04:00;;;;;;;4.43;2.47;;;;;;;;;;5044726;28;20044;-78
2023/01/04 08:06:26;;;;;;;6.95;2.92;;;;;;;;;;5055654;28;20083;-76
2023/01/04 08:08:52;;;;;;;5.13;2.30;;;;;;;;;;5040288;28;20040;-77
2023/01/04 08:11:23;;;;;;;6.03;3.25;;;;;;;;;;5054528;28;20042;-77
2023/01/04 08:13:49;;;;;;;4.55;2.00;;;;;;;;;;5056628;28;20388;-78
2023/01/04 08:16:21;;;;;;;5.88;2.47;;;;;;;;;;5025746;28;20388;-78
2023/01/04 08:18:48;;;;;;;2.72;2.03;;;;;;;;;;5055776;28;20050;-79
2023/01/04 08:21:14;;;;;;;2.47;2.10;;;;;;;;;;5055845;28;20461;-78
2023/01/04 08:23:40;;;;;;;2.75;1.60;;;;;;;;;;5039295;28;20139;-78
2023/01/04 08:26:11;;;;;;;4.38;2.45;;;;;;;;;;5075754;28;20712;-77
2023/01/04 08:28:37;;;;;;;4.75;1.77;;;;;;;;;;5038810;28;20514;-78
2023/01/04 08:31:05;;;;;;;5.18;2.03;;;;;;;;;;5057603;28;20044;-79
2023/01/04 08:33:31;;;;;;;3.78;2.72;;;;;;;;;;5040398;28;20094;-79
2023/01/04 08:36:07;;;;;;;2.63;1.98;;;;;;;;;;5055313;28;20177;-79
2023/01/04 08:38:33;;;;;;;4.32;1.65;;;;;;;;;;5038715;28;20065;-79
2023/01/04 08:40:59;;;;;;;4.35;1.92;;;;;;;;;;5067217;28;20039;-79
2023/01/04 08:43:25;;;;;;;3.40;1.58;;;;;;;;;;5050339;28;20052;-78
2023/01/04 08:45:51;;;;;;;4.05;1.38;;;;;;;;;;5063882;28;20040;-79
2023/01/04 08:48:17;;;;;;;3.67;1.50;;;;;;;;;;5059740;28;20063;-79
2023/01/04 08:50:43;;;;;;;2.58;1.90;;;;;;;;;;5056792;28;20605;-80
2023/01/04 08:53:10;;;;;;;3.63;2.55;;;;;;;;;;5059535;28;20044;-80
2023/01/04 08:55:37;;;;;;;3.20;1.90;;;;;;;;;;5086341;28;20322;-80
2023/01/04 08:58:04;;;;;;;1.83;1.52;;;;;;;;;;5083671;28;21231;-81
2023/01/04 09:00:30;;;;;;;2.42;1.33;;;;;;;;;;5062102;28;20564;-80
2023/01/04 09:02:56;;;;;;;4.18;2.92;;;;;;;;;;5075494;28;20035;-79
2023/01/04 09:05:22;;;;;;;2.08;1.38;;;;;;;;;;5061820;28;20052;-80
2023/01/04 09:07:48;;;;;;;3.05;2.13;;;;;;;;;;5069578;28;20040;-80
2023/01/04 09:10:15;;;;;;;1.63;1.42;;;;;;;;;;5065454;28;20052;-80
2023/01/04 09:12:41;;;;;;;2.90;1.45;;;;;;;;;;5042012;28;20044;-80
2023/01/04 09:15:08;;;;;;;3.75;1.70;;;;;;;;;;5058890;28;20122;-80
2023/01/04 09:17:34;;;;;;;3.95;1.15;;;;;;;;;;5041668;28;20299;-79
2023/01/04 09:20:00;;;;;;;1.63;1.52;;;;;;;;;;5041734;28;20040;-79
2023/01/04 09:22:26;;;;;;;2.28;1.17;;;;;;;;;;5057340;28;20048;-80
2023/01/04 09:24:53;;;;;;;3.50;1.48;;;;;;;;;;5039920;28;20043;-79
2023/01/04 09:27:19;;;;;;;3.30;1.90;;;;;;;;;;5044742;28;20035;-80
2023/01/04 09:29:46;;;;;;;2.90;1.40;;;;;;;;;;5044032;28;20032;-80
2023/01/04 09:32:12;;;;;;;4.30;1.80;;;;;;;;;;5060551;28;20048;-80
2023/01/04 09:34:38;;;;;;;5.95;3.30;;;;;;;;;;5042768;28;20128;-80
2023/01/04 09:37:04;;;;;;;8.40;2.90;;;;;;;;;;5042515;28;20686;-80
2023/01/04 09:39:31;;;;;;;9.35;2.45;;;;;;;;;;5058398;28;21128;-80
2023/01/04 09:41:58;;;;;;;3.30;1.95;;;;;;;;;;5062757;28;20481;-80
2023/01/04 09:44:37;;;;;;;5.65;3.42;;;;;;;;;;5074333;28;20063;-80
2023/01/04 09:47:08;;;;;;;4.55;1.67;;;;;;;;;;5050187;28;20078;-81
2023/01/04 09:49:39;;;;;;;11.48;4.10;;;;;;;;;;5034816;28;20051;-82
2023/01/04 09:52:25;;;;;;;8.32;3.58;;;;;;;;;;5037728;28;20514;-81
2023/01/04 09:55:00;;;;;;;11.05;3.50;;;;;;;;;;5035772;28;21755;-82
2023/01/04 09:57:28;;;;;;;17.15;5.80;;;;;;;;;;5055606;28;20052;-81
2023/01/04 09:59:57;;;;;;;20.92;4.63;;;;;;;;;;5045601;28;20048;-81
2023/01/04 10:02:33;;;;;;;10.82;4.47;;;;;;;;;;5043436;28;20055;-82
2023/01/04 10:05:00;;;;;;;13.93;4.15;;;;;;;;;;5057658;28;20152;-83
2023/01/04 10:07:28;;;;;;;16.77;4.35;;;;;;;;;;5058492;28;21603;-83
2023/01/04 10:09:54;;;;;;;12.25;3.22;;;;;;;;;;5055810;28;20044;-81
2023/01/04 10:12:41;;;;;;;11.80;4.03;;;;;;;;;;5053996;28;20048;-83
2023/01/04 10:15:19;;;;;;;14.52;4.15;;;;;;;;;;5038207;28;21072;-72
2023/01/04 10:17:49;;;;;;;14.30;4.50;;;;;;;;;;5055489;28;20048;-72
2023/01/04 10:20:27;;;;;;;14.38;4.03;;;;;;;;;;5052891;28;20042;-72
2023/01/04 10:23:12;;;;;;;17.42;4.93;;;;;;;;;;5070053;28;20094;-72
2023/01/04 10:25:38;;;;;;;18.77;5.05;;;;;;;;;;5051435;28;20063;-72
2023/01/04 10:28:17;;;;;;;20.90;3.65;;;;;;;;;;5055090;28;20056;-72
2023/01/04 10:30:46;;;;;;;17.15;4.47;;;;;;;;;;5058243;28;20047;-73
2023/01/04 10:33:43;;;;;;;20.13;3.92;;;;;;;;;;5061499;28;20075;-72
2023/01/04 10:36:30;;;;;;;18.25;4.43;;;;;;;;;;5071365;28;20059;-73
2023/01/04 10:39:11;;;;;;;20.25;3.47;;;;;;;;;;5072569;28;20041;-72
2023/01/04 10:41:48;;;;;;;30.45;5.68;;;;;;;;;;5053635;28;20050;-73
2023/01/04 10:44:24;;;;;;;23.10;4.82;;;;;;;;;;5057472;28;20048;-73
2023/01/04 10:46:50;;;;;;;27.67;4.72;;;;;;;;;;5055440;28;20064;-72
2023/01/04 10:49:18;;;;;;;23.85;4.40;;;;;;;;;;5052730;28;20089;-72
2023/01/04 10:51:47;;;;;;;23.88;4.65;;;;;;;;;;5049538;28;20048;-71
2023/01/04 10:54:27;;;;;;;15.45;2.63;;;;;;;;;;5053207;28;20047;-71
2023/01/04 10:57:20;;;;;;;27.95;4.90;;;;;;;;;;5048580;28;20080;-72
2023/01/04 10:59:50;;;;;;;42.25;6.00;;;;;;;;;;5006763;28;20056;-72
2023/01/04 11:02:24;;;;;;;29.92;4.32;;;;;;;;;;5052597;28;20032;-72
2023/01/04 11:04:55;;;;;;;36.88;5.68;;;;;;;;;;5051930;28;20094;-71
2023/01/04 11:07:25;;;;;;;25.40;4.70;;;;;;;;;;5047872;28;20075;-72
2023/01/04 11:10:01;;;;;;;24.77;4.95;;;;;;;;;;5034845;28;20084;-73
2023/01/04 11:12:27;;;;;;;30.60;5.72;;;;;;;;;;5051797;28;20761;-72
2023/01/04 11:14:53;;;;;;;32.40;5.38;;;;;;;;;;5034022;28;20243;-72
2023/01/04 11:17:20;;;;;;;33.72;5.63;;;;;;;;;;5070382;28;20160;-72
2023/01/04 11:19:47;;;;;;;40.50;6.88;;;;;;;;;;5051817;28;20408;-72
2023/01/04 11:22:36;;;;;;;34.90;5.47;;;;;;;;;;5041549;28;20396;-73
2023/01/04 11:25:05;;;;;;;28.67;5.43;;;;;;;;;;5047808;28;20131;-72
2023/01/04 11:27:35;;;;;;;27.15;5.20;;;;;;;;;;5050994;28;20094;-72
2023/01/04 11:30:22;;;;;;;40.35;6.80;;;;;;;;;;5050162;28;20044;-72
2023/01/04 11:33:03;;;;;;;37.88;6.22;;;;;;;;;;5051315;28;20056;-71
2023/01/04 11:35:42;;;;;;;36.58;5.50;;;;;;;;;;5051311;28;20050;-71
2023/01/04 11:38:12;;;;;;;42.00;6.53;;;;;;;;;;5057458;28;20044;-71
2023/01/04 11:40:40;;;;;;;33.40;5.22;;;;;;;;;;5042723;28;20046;-71
2023/01/04 11:43:16;;;;;;;41.72;6.55;;;;;;;;;;5053835;28;20461;-71
2023/01/04 11:45:52;;;;;;;41.08;5.82;;;;;;;;;;5057032;28;20048;-71
2023/01/04 11:48:18;;;;;;;31.45;4.97;;;;;;;;;;5057182;28;20412;-71
2023/01/04 11:50:45;;;;;;;20.17;4.65;;;;;;;;;;5056485;28;20051;-72
2023/01/04 11:53:29;;;;;;;22.83;3.80;;;;;;;;;;5055823;28;20126;-71
2023/01/04 11:56:14;;;;;;;21.17;3.60;;;;;;;;;;5055948;28;20621;-71
2023/01/04 11:58:41;;;;;;;21.48;3.65;;;;;;;;;;5053566;28;20202;-71
2023/01/04 12:01:18;;;;;;;15.77;2.70;;;;;;;;;;5053687;28;20063;-70
2023/01/04 12:03:44;;;;;;;18.83;3.33;;;;;;;;;;5055968;28;20373;-71
2023/01/04 12:06:13;;;;;;;21.35;3.50;;;;;;;;;;5052092;28;21334;-71
2023/01/04 12:08:41;;;;;;;25.60;3.92;;;;;;;;;;5054623;28;20048;-71
2023/01/04 12:11:15;;;;;;;25.92;4.53;;;;;;;;;;5056038;28;20040;-71
2023/01/04 12:13:41;;;;;;;;;;;;;;;;;;5041794;28;20573;-71
2023/01/04 12:16:13;;;;;;;23.50;4.05;;;;;;;;;;5054417;28;21856;-71
2023/01/04 12:18:41;;;;;;;25.35;3.65;;;;;;;;;;5076784;28;20048;-71
2023/01/04 12:21:16;;;;;;;27.05;5.75;;;;;;;;;;5075080;28;20197;-70
2023/01/04 12:23:43;;;;;;;37.17;5.05;;;;;;;;;;5055150;28;20058;-71
2023/01/04 12:26:10;;;;;;;39.10;5.82;;;;;;;;;;5052482;28;20047;-71
2023/01/04 12:28:41;;;;;;;27.90;4.85;;;;;;;;;;5053263;28;20052;-71
2023/01/04 12:31:19;;;;;;;30.63;5.10;;;;;;;;;;5054028;28;20093;-71
2023/01/04 12:33:45;;;;;;;37.75;4.82;;;;;;;;;;5053221;28;20055;-71
2023/01/04 12:36:11;;;;;;;30.40;4.80;;;;;;;;;;5037838;28;20058;-71
2023/01/04 12:38:56;;;;;;;25.52;5.00;;;;;;;;;;5054271;28;20492;-71
2023/01/04 12:41:34;;;;;;;30.75;5.13;;;;;;;;;;5055990;28;20265;-71
2023/01/04 12:44:01;;;;;;;18.30;3.65;;;;;;;;;;5056584;28;20621;-70
2023/01/04 12:49:43;;;;;;;29.10;4.43;;;;;;;;;;5055363;28;20060;-71
2023/01/04 12:52:09;;;;;;;21.63;5.03;;;;;;;;;;5058641;28;20048;-71
2023/01/04 12:54:53;;;;;;;23.15;4.20;;;;;;;;;;5058441;28;20401;-70
2023/01/04 12:57:34;;;;;;;23.95;3.80;;;;;;;;;;5055749;28;20610;-71
2023/01/04 13:00:05;;;;;;;26.13;4.32;;;;;;;;;;5056606;28;20067;-71
2023/01/04 13:02:42;;;;;;;22.25;3.95;;;;;;;;;;5056680;28;20504;-71
2023/01/04 13:05:18;;;;;;;17.25;4.20;;;;;;;;;;5050348;28;20072;-70
2023/01/04 13:07:46;;;;;;;19.35;3.85;;;;;;;;;;5052118;28;20051;-70
2023/01/04 13:10:19;;;;;;;22.20;3.75;;;;;;;;;;5054656;28;20469;-70
2023/01/04 13:13:01;;;;;;;20.93;3.00;;;;;;;;;;5053689;28;20119;-69
2023/01/04 13:15:38;;;;;;;17.98;3.75;;;;;;;;;;5051707;28;20039;-70
2023/01/04 13:18:16;;;;;;;18.52;3.55;;;;;;;;;;5056404;28;20587;-69
2023/01/04 13:20:42;;;;;;;17.20;2.72;;;;;;;;;;5052983;28;20369;-70
2023/01/04 13:23:10;;;;;;;15.82;2.97;;;;;;;;;;5053402;28;20040;-70
2023/01/04 13:25:36;;;;;;;17.40;2.83;;;;;;;;;;5053508;28;20082;-70
2023/01/04 13:28:04;;;;;;;11.00;2.58;;;;;;;;;;5053373;28;20043;-70
2023/01/04 13:30:35;;;;;;;9.85;2.92;;;;;;;;;;5054485;28;20064;-70
2023/01/04 13:33:13;;;;;;;14.55;3.03;;;;;;;;;;5038893;28;20067;-70
2023/01/04 13:35:40;;;;;;;15.43;2.88;;;;;;;;;;5055524;28;20545;-71
2023/01/04 13:38:12;;;;;;;16.90;3.30;;;;;;;;;;5055163;28;20156;-70
2023/01/04 13:40:43;;;;;;;15.43;2.92;;;;;;;;;;5039972;28;20159;-70
2023/01/04 13:43:15;;;;;;;19.40;2.97;;;;;;;;;;5056753;28;20873;-71
2023/01/04 13:45:48;;;;;;;16.27;3.55;;;;;;;;;;5059338;28;20098;-81
2023/01/04 13:48:17;;;;;;;17.15;3.67;;;;;;;;;;5056907;28;20445;-73
2023/01/04 13:51:04;;;;;;;17.25;3.75;;;;;;;;;;5058309;28;20173;-72
2023/01/04 13:53:31;;;;;;;11.63;3.80;;;;;;;;;;5062885;28;20131;-73
2023/01/04 13:55:58;;;;;;;16.92;3.55;;;;;;;;;;5044092;28;20040;-72
2023/01/04 13:58:26;;;;;;;16.27;2.58;;;;;;;;;;5076270;28;20137;-70
2023/01/04 14:00:52;;;;;;;23.42;3.35;;;;;;;;;;5085682;28;20032;-72
2023/01/04 14:03:18;;;;;;;15.25;2.88;;;;;;;;;;5075058;28;20426;-72
2023/01/04 14:05:49;;;;;;;27.00;4.47;;;;;;;;;;5064019;28;20556;-72
2023/01/04 14:08:20;;;;;;;16.38;3.35;;;;;;;;;;5043294;28;20044;-73
2023/01/04 14:10:47;;;;;;;22.73;4.45;;;;;;;;;;5058973;28;20137;-73
2023/01/04 14:13:17;;;;;;;22.38;4.03;;;;;;;;;;5056429;28;20378;-72
2023/01/04 14:15:44;;;;;;;25.63;3.65;;;;;;;;;;5057357;28;20134;-72
2023/01/04 14:18:24;;;;;;;20.42;4.65;;;;;;;;;;5061584;28;20063;-72
2023/01/04 14:20:51;;;;;;;22.90;3.72;;;;;;;;;;5057347;28;20132;-72
2023/01/04 14:23:34;;;;;;;26.80;4.15;;;;;;;;;;5059018;28;20040;-72
2023/01/04 14:26:00;;;;;;;20.10;3.47;;;;;;;;;;5058983;28;20056;-72
2023/01/04 14:28:28;;;;;;;22.40;3.95;;;;;;;;;;5074470;28;20117;-72
2023/01/04 14:30:57;;;;;;;25.98;3.95;;;;;;;;;;5055663;28;20036;-73
2023/01/04 14:33:31;;;;;;;15.80;3.40;;;;;;;;;;5058856;28;20035;-73
2023/01/04 14:35:57;;;;;;;;;;;;;;;;;;5058378;28;20431;-73
2023/01/04 14:38:23;;;;;;;21.75;3.30;;;;;;;;;;5057751;28;19920;-73
2023/01/04 14:40:49;;;;;;;23.40;3.95;;;;;;;;;;5041687;28;21626;-73
2023/01/04 14:43:35;;;;;;;20.98;4.07;;;;;;;;;;5058780;28;20046;-73
2023/01/04 14:46:02;;;;;;;27.58;4.45;;;;;;;;;;5039497;28;20074;-71
2023/01/04 14:48:28;;;;;;;30.98;4.82;;;;;;;;;;5053017;28;20514;-70
2023/01/04 14:50:55;;;;;;;38.60;5.60;;;;;;;;;;5025025;28;20037;-71
2023/01/04 14:53:21;;;;;;;31.40;6.32;;;;;;;;;;5057241;28;20903;-72
2023/01/04 14:55:47;;;;;;;40.60;8.25;;;;;;;;;;5056841;28;20036;-72
2023/01/04 14:58:13;;;;;;;29.90;7.82;;;;;;;;;;5057051;28;20058;-72
2023/01/04 15:00:40;;;;;;;28.08;7.28;;;;;;;;;;5055917;28;20499;-73
2023/01/04 15:03:06;;;;;;;25.20;7.05;;;;;;;;;;5055482;28;20041;-72
2023/01/04 15:05:33;;;;;;;32.80;8.35;;;;;;;;;;5051322;28;20048;-72
2023/01/04 15:08:00;;;;;;;34.33;6.60;;;;;;;;;;5057513;28;20502;-73
2023/01/04 15:10:27;;;;;;;32.97;6.28;;;;;;;;;;5062979;28;20041;-72
2023/01/04 15:12:53;;;;;;;31.92;6.18;;;;;;;;;;5060568;28;20073;-73
2023/01/04 15:15:20;;;;;;;27.15;5.43;;;;;;;;;;5058543;28;20041;-73
2023/01/04 15:17:46;;;;;;;32.03;6.13;;;;;;;;;;5060719;28;20046;-72
2023/01/04 15:20:13;;;;;;;32.20;5.40;;;;;;;;;;5057717;28;20632;-72
2023/01/04 15:22:39;;;;;;;35.65;5.65;;;;;;;;;;5060032;28;20043;-71
2023/01/04 15:25:06;;;;;;;40.25;5.85;;;;;;;;;;5060515;28;20052;-72
2023/01/04 15:27:33;;;;;;;29.60;5.50;;;;;;;;;;5059635;28;20110;-71
2023/01/04 15:29:59;;;;;;;40.25;6.13;;;;;;;;;;5059907;28;20469;-72
2023/01/04 15:32:25;;;;;;;27.60;6.05;;;;;;;;;;5060690;28;20071;-71
2023/01/04 15:34:51;;;;;;;33.17;6.03;;;;;;;;;;5061248;28;20048;-72
2023/01/04 15:37:19;;;;;;;39.13;7.68;;;;;;;;;;5063429;28;20141;-72
2023/01/04 15:39:46;;;;;;;41.08;6.70;;;;;;;;;;5065505;28;21747;-72
2023/01/04 15:44:56;;;;;;;20.95;4.57;;;;;;;;;;5084725;28;20066;-73
2023/01/04 15:47:23;;;;;;;22.73;3.75;;;;;;;;;;5068792;28;20105;-73